Impacts TAF Board
For situational awareness. Not to be used for flight planning purposes.
IDs:

KSAT - San Antonio Intl, TX, US

Issued at 1720 UTC 02 Oct 2022
Updated at 2241 UTC 02 Oct 2022
Potential Impact None Slight Moderate High
Time<<03/11Z 03/12Z 03/13Z 03/14Z 03/15Z 03/16Z 03/17Z 03/18Z 03/19Z 03/20Z 03/21Z 03/22Z 03/23Z>>
Type PRVL PRVL PRVL PRVL PRVL PRVL PRVL PRVL PRVL PRVL PRVL PRVL PRVL
VIS >6 >6 >6 >6 >6 >6 >6 >6 >6 >6 >6 >6 >6
CIG 250 250 250 250 -- -- -- -- -- -- -- -- --
Cover BKN BKN BKN BKN SCT SCT SCT SCT SCT SCT SCT SCT SCT
FltCat VFR VFR VFR VFR VFR VFR VFR VFR VFR VFR VFR VFR VFR
WX -- -- -- -- -- -- -- -- -- -- -- -- --
WDir VRB VRB VRB VRB 100 100 100 100 100 100 100 100 100
WSpd 3 3 3 3 5 5 5 5 5 5 5 5 5
WGst -- -- -- -- -- -- -- -- -- -- -- -- --
WSHgt -- -- -- -- -- -- -- -- -- -- -- -- --
WSDir -- -- -- -- -- -- -- -- -- -- -- -- --
WSSpd -- -- -- -- -- -- -- -- -- -- -- -- --
R04/22
XWnd VRB VRB VRB VRB -4 -4 -4 -4 -4 -4 -4 -4 -4
HWnd VRB VRB VRB VRB 3 3 3 3 3 3 3 3 3
R13/31
XWnd VRB VRB VRB VRB 3 3 3 3 3 3 3 3 3
HWnd VRB VRB VRB VRB 4 4 4 4 4 4 4 4 4
Raw TAF
KSAT 021720Z 0218/0324 12008KT P6SM BKN250
  FM030100 VRB03KT P6SM BKN250
  FM031500 10005KT P6SM SCT250


METAR Board
Radar Display
Forecast Discussion
For situational awareness. Not to be used for flight planning purposes.